sensor_id;sensor_type;location;lat;lon;timestamp;pressure;altitude;pressure_sealevel;temperature;humidity
7990;BME280;4040;42.848;23.034;2023-05-10T00:03:29;95135.88;;;9.13;100.00
7990;BME280;4040;42.848;23.034;2023-05-10T00:13:41;95130.47;;;9.06;100.00
7990;BME280;4040;42.848;23.034;2023-05-10T00:19:30;95120.50;;;9.03;100.00
7990;BME280;4040;42.848;23.034;2023-05-10T00:25:19;95115.13;;;9.03;100.00
7990;BME280;4040;42.848;23.034;2023-05-10T00:31:10;95115.88;;;9.03;100.00
7990;BME280;4040;42.848;23.034;2023-05-10T00:36:58;95108.97;;;8.99;100.00
7990;BME280;4040;42.848;23.034;2023-05-10T00:42:47;95105.16;;;8.93;100.00
7990;BME280;4040;42.848;23.034;2023-05-10T00:48:37;95093.63;;;8.82;100.00
7990;BME280;4040;42.848;23.034;2023-05-10T00:54:26;95099.78;;;8.86;100.00
7990;BME280;4040;42.848;23.034;2023-05-10T01:00:15;95098.25;;;8.92;100.00
7990;BME280;4040;42.848;23.034;2023-05-10T01:06:07;95092.09;;;8.88;100.00
7990;BME280;4040;42.848;23.034;2023-05-10T01:16:18;95089.03;;;8.72;100.00
7990;BME280;4040;42.848;23.034;2023-05-10T01:22:30;95094.41;;;8.72;100.00
7990;BME280;4040;42.848;23.034;2023-05-10T01:28:39;95074.44;;;8.73;100.00
7990;BME280;4040;42.848;23.034;2023-05-10T01:34:35;95075.97;;;8.67;100.00
7990;BME280;4040;42.848;23.034;2023-05-10T01:40:31;95067.50;;;8.58;100.00
7990;BME280;4040;42.848;23.034;2023-05-10T01:46:26;95070.56;;;8.60;100.00
7990;BME280;4040;42.848;23.034;2023-05-10T01:52:19;95074.41;;;8.59;100.00
7990;BME280;4040;42.848;23.034;2023-05-10T01:58:10;95079.78;;;8.59;100.00
7990;BME280;4040;42.848;23.034;2023-05-10T02:04:02;95072.88;;;8.58;100.00
7990;BME280;4040;42.848;23.034;2023-05-10T02:09:53;95077.88;;;8.63;100.00
7990;BME280;4040;42.848;23.034;2023-05-10T02:15:47;95068.28;;;8.55;100.00
7990;BME280;4040;42.848;23.034;2023-05-10T02:21:37;95084.38;;;8.55;100.00
7990;BME280;4040;42.848;23.034;2023-05-10T02:27:29;95085.16;;;8.59;100.00
7990;BME280;4040;42.848;23.034;2023-05-10T02:33:20;95082.06;;;8.53;100.00
7990;BME280;4040;42.848;23.034;2023-05-10T02:39:10;95071.31;;;8.50;100.00
7990;BME280;4040;42.848;23.034;2023-05-10T02:45:04;95063.63;;;8.31;100.00
7990;BME280;4040;42.848;23.034;2023-05-10T02:50:59;95082.06;;;8.43;100.00
7990;BME280;4040;42.848;23.034;2023-05-10T02:56:53;95081.28;;;8.32;100.00
7990;BME280;4040;42.848;23.034;2023-05-10T03:02:45;95082.41;;;8.24;100.00
7990;BME280;4040;42.848;23.034;2023-05-10T03:08:34;95094.22;;;8.16;100.00
7990;BME280;4040;42.848;23.034;2023-05-10T03:18:50;95094.13;;;7.95;100.00
7990;BME280;4040;42.848;23.034;2023-05-10T03:24:43;95099.34;;;7.60;100.00
7990;BME280;4040;42.848;23.034;2023-05-10T03:30:33;95101.22;;;7.52;100.00
7990;BME280;4040;42.848;23.034;2023-05-10T03:36:24;95110.59;;;7.26;100.00
7990;BME280;4040;42.848;23.034;2023-05-10T03:42:12;95107.41;;;7.06;100.00
7990;BME280;4040;42.848;23.034;2023-05-10T03:48:01;95123.03;;;7.01;100.00
7990;BME280;4040;42.848;23.034;2023-05-10T03:53:51;95127.63;;;7.00;100.00
7990;BME280;4040;42.848;23.034;2023-05-10T03:59:39;95132.59;;;6.98;100.00
7990;BME280;4040;42.848;23.034;2023-05-10T04:05:28;95127.25;;;7.02;100.00
7990;BME280;4040;42.848;23.034;2023-05-10T04:11:18;95134.19;;;7.06;100.00
7990;BME280;4040;42.848;23.034;2023-05-10T04:21:30;95138.06;;;7.16;100.00
7990;BME280;4040;42.848;23.034;2023-05-10T04:27:20;95148.03;;;7.15;100.00
7990;BME280;4040;42.848;23.034;2023-05-10T04:33:09;95151.47;;;7.16;100.00
7990;BME280;4040;42.848;23.034;2023-05-10T04:38:58;95164.03;;;7.08;100.00
7990;BME280;4040;42.848;23.034;2023-05-10T04:44:48;95157.16;;;7.07;100.00
7990;BME280;4040;42.848;23.034;2023-05-10T04:50:36;95154.97;;;7.23;100.00
7990;BME280;4040;42.848;23.034;2023-05-10T04:56:25;95154.66;;;7.35;100.00
7990;BME280;4040;42.848;23.034;2023-05-10T05:02:15;95148.88;;;7.26;100.00
7990;BME280;4040;42.848;23.034;2023-05-10T05:08:04;95154.31;;;7.37;100.00
7990;BME280;4040;42.848;23.034;2023-05-10T05:13:53;95159.28;;;7.35;100.00
7990;BME280;4040;42.848;23.034;2023-05-10T05:24:06;95167.97;;;7.21;100.00
7990;BME280;4040;42.848;23.034;2023-05-10T05:29:55;95155.03;;;7.30;100.00
7990;BME280;4040;42.848;23.034;2023-05-10T05:35:44;95170.38;;;7.37;100.00
7990;BME280;4040;42.848;23.034;2023-05-10T05:41:39;95175.78;;;7.40;100.00
7990;BME280;4040;42.848;23.034;2023-05-10T05:47:27;95177.38;;;7.48;100.00
7990;BME280;4040;42.848;23.034;2023-05-10T05:53:26;95187.34;;;7.51;100.00
7990;BME280;4040;42.848;23.034;2023-05-10T05:59:16;95170.56;;;7.61;100.00
7990;BME280;4040;42.848;23.034;2023-05-10T06:05:06;95152.88;;;7.53;100.00
7990;BME280;4040;42.848;23.034;2023-05-10T06:10:55;95185.94;;;7.71;100.00
7990;BME280;4040;42.848;23.034;2023-05-10T06:16:45;95194.78;;;7.75;100.00
7990;BME280;4040;42.848;23.034;2023-05-10T06:26:55;95193.78;;;8.00;100.00
7990;BME280;4040;42.848;23.034;2023-05-10T06:32:48;95202.25;;;8.09;100.00
7990;BME280;4040;42.848;23.034;2023-05-10T06:38:37;95211.53;;;8.22;100.00
7990;BME280;4040;42.848;23.034;2023-05-10T06:44:26;95209.13;;;8.07;100.00
7990;BME280;4040;42.848;23.034;2023-05-10T06:50:16;95209.56;;;8.16;100.00
7990;BME280;4040;42.848;23.034;2023-05-10T06:56:05;95214.69;;;8.35;100.00
7990;BME280;4040;42.848;23.034;2023-05-10T07:01:54;95181.59;;;8.17;100.00
7990;BME280;4040;42.848;23.034;2023-05-10T07:07:44;95220.09;;;8.42;100.00
7990;BME280;4040;42.848;23.034;2023-05-10T07:13:33;95215.00;;;8.23;100.00
7990;BME280;4040;42.848;23.034;2023-05-10T07:19:23;95233.34;;;8.17;100.00
7990;BME280;4040;42.848;23.034;2023-05-10T07:29:35;95215.50;;;8.46;100.00
7990;BME280;4040;42.848;23.034;2023-05-10T07:35:24;95219.44;;;8.73;100.00
7990;BME280;4040;42.848;23.034;2023-05-10T07:41:13;95227.25;;;9.34;100.00
7990;BME280;4040;42.848;23.034;2023-05-10T07:47:03;95240.31;;;9.88;100.00
7990;BME280;4040;42.848;23.034;2023-05-10T07:52:52;95213.94;;;10.72;100.00
7990;BME280;4040;42.848;23.034;2023-05-10T07:58:41;95218.94;;;11.45;100.00
7990;BME280;4040;42.848;23.034;2023-05-10T08:04:31;95224.31;;;11.49;100.00
7990;BME280;4040;42.848;23.034;2023-05-10T08:10:20;95241.75;;;10.48;100.00
7990;BME280;4040;42.848;23.034;2023-05-10T08:16:09;95214.94;;;9.75;100.00
7990;BME280;4040;42.848;23.034;2023-05-10T08:21:59;95237.22;;;10.13;100.00
7990;BME280;4040;42.848;23.034;2023-05-10T08:32:09;95244.13;;;9.93;100.00
7990;BME280;4040;42.848;23.034;2023-05-10T08:38:00;95236.44;;;10.23;100.00
7990;BME280;4040;42.848;23.034;2023-05-10T08:43:50;95227.13;;;10.56;100.00
7990;BME280;4040;42.848;23.034;2023-05-10T08:49:38;95235.63;;;10.44;100.00
7990;BME280;4040;42.848;23.034;2023-05-10T08:55:29;95229.28;;;10.89;100.00
7990;BME280;4040;42.848;23.034;2023-05-10T09:01:20;95232.94;;;11.19;100.00
7990;BME280;4040;42.848;23.034;2023-05-10T09:07:10;95225.38;;;11.00;100.00
7990;BME280;4040;42.848;23.034;2023-05-10T09:13:01;95223.75;;;11.13;100.00
7990;BME280;4040;42.848;23.034;2023-05-10T09:18:50;95234.03;;;11.32;100.00
7990;BME280;4040;42.848;23.034;2023-05-10T09:24:39;95215.91;;;11.36;100.00
7990;BME280;4040;42.848;23.034;2023-05-10T09:34:55;95219.72;;;11.42;100.00
7990;BME280;4040;42.848;23.034;2023-05-10T09:40:51;95232.09;;;11.36;100.00
7990;BME280;4040;42.848;23.034;2023-05-10T09:46:41;95224.19;;;11.66;100.00
7990;BME280;4040;42.848;23.034;2023-05-10T09:52:46;95207.97;;;11.70;100.00
7990;BME280;4040;42.848;23.034;2023-05-10T09:58:36;95190.44;;;11.44;100.00
7990;BME280;4040;42.848;23.034;2023-05-10T10:04:26;95210.63;;;11.22;100.00
7990;BME280;4040;42.848;23.034;2023-05-10T10:10:16;95203.59;;;11.35;100.00
7990;BME280;4040;42.848;23.034;2023-05-10T10:16:06;95200.34;;;11.03;100.00
7990;BME280;4040;42.848;23.034;2023-05-10T10:21:57;95199.06;;;11.18;100.00
7990;BME280;4040;42.848;23.034;2023-05-10T10:27:59;95199.97;;;11.01;100.00
7990;BME280;4040;42.848;23.034;2023-05-10T10:33:59;95186.28;;;11.29;100.00
7990;BME280;4040;42.848;23.034;2023-05-10T10:39:49;95197.63;;;11.03;100.00
7990;BME280;4040;42.848;23.034;2023-05-10T10:45:39;95188.13;;;11.39;100.00
7990;BME280;4040;42.848;23.034;2023-05-10T10:51:28;95191.38;;;11.71;100.00
7990;BME280;4040;42.848;23.034;2023-05-10T10:57:19;95176.25;;;11.84;100.00
7990;BME280;4040;42.848;23.034;2023-05-10T11:03:10;95176.81;;;12.02;100.00
7990;BME280;4040;42.848;23.034;2023-05-10T11:09:06;95175.88;;;12.19;100.00
7990;BME280;4040;42.848;23.034;2023-05-10T11:14:57;95180.56;;;12.15;100.00
7990;BME280;4040;42.848;23.034;2023-05-10T11:20:52;95185.63;;;11.69;100.00
7990;BME280;4040;42.848;23.034;2023-05-10T11:26:41;95094.06;;;11.04;100.00
7990;BME280;4040;42.848;23.034;2023-05-10T11:32:30;95184.91;;;11.62;100.00
7990;BME280;4040;42.848;23.034;2023-05-10T11:38:20;95189.44;;;11.75;100.00
7990;BME280;4040;42.848;23.034;2023-05-10T11:44:09;95181.75;;;11.70;100.00
7990;BME280;4040;42.848;23.034;2023-05-10T11:49:58;95188.56;;;11.85;100.00
7990;BME280;4040;42.848;23.034;2023-05-10T11:55:49;95188.44;;;11.99;100.00
7990;BME280;4040;42.848;23.034;2023-05-10T12:01:37;95186.28;;;11.80;100.00
7990;BME280;4040;42.848;23.034;2023-05-10T12:07:26;95179.59;;;11.95;100.00
7990;BME280;4040;42.848;23.034;2023-05-10T12:13:18;95171.53;;;11.92;100.00
7990;BME280;4040;42.848;23.034;2023-05-10T12:19:07;95187.31;;;11.93;100.00
7990;BME280;4040;42.848;23.034;2023-05-10T12:24:58;95190.13;;;11.83;100.00
7990;BME280;4040;42.848;23.034;2023-05-10T12:30:48;95182.56;;;12.04;100.00
7990;BME280;4040;42.848;23.034;2023-05-10T12:36:38;95174.22;;;12.29;100.00
7990;BME280;4040;42.848;23.034;2023-05-10T12:42:27;95163.09;;;11.90;100.00
7990;BME280;4040;42.848;23.034;2023-05-10T12:48:17;95160.63;;;12.02;100.00
7990;BME280;4040;42.848;23.034;2023-05-10T12:54:06;95152.88;;;12.04;100.00
7990;BME280;4040;42.848;23.034;2023-05-10T12:59:55;95137.59;;;11.94;100.00
7990;BME280;4040;42.848;23.034;2023-05-10T13:05:45;95144.59;;;11.88;100.00
7990;BME280;4040;42.848;23.034;2023-05-10T13:11:33;95128.53;;;11.74;100.00
7990;BME280;4040;42.848;23.034;2023-05-10T13:17:22;95124.25;;;11.77;100.00
7990;BME280;4040;42.848;23.034;2023-05-10T13:23:13;95128.97;;;11.69;100.00
7990;BME280;4040;42.848;23.034;2023-05-10T13:29:01;95122.34;;;11.77;100.00
7990;BME280;4040;42.848;23.034;2023-05-10T13:38:53;95113.88;;;11.75;100.00
7990;BME280;4040;42.848;23.034;2023-05-10T13:44:42;95127.44;;;11.68;100.00
7990;BME280;4040;42.848;23.034;2023-05-10T13:50:31;95109.03;;;11.93;100.00
7990;BME280;4040;42.848;23.034;2023-05-10T13:56:39;95115.41;;;11.76;100.00
7990;BME280;4040;42.848;23.034;2023-05-10T14:02:29;95106.72;;;11.95;100.00
7990;BME280;4040;42.848;23.034;2023-05-10T14:08:18;95118.25;;;11.99;100.00
7990;BME280;4040;42.848;23.034;2023-05-10T14:14:08;95116.00;;;11.94;100.00
7990;BME280;4040;42.848;23.034;2023-05-10T14:19:57;95109.13;;;11.86;100.00
7990;BME280;4040;42.848;23.034;2023-05-10T14:25:46;95108.31;;;11.89;100.00
7990;BME280;4040;42.848;23.034;2023-05-10T14:31:36;95105.97;;;11.91;100.00
7990;BME280;4040;42.848;23.034;2023-05-10T14:41:47;95108.66;;;11.95;100.00
7990;BME280;4040;42.848;23.034;2023-05-10T14:47:37;95120.50;;;12.04;100.00
7990;BME280;4040;42.848;23.034;2023-05-10T14:53:35;95114.44;;;11.93;100.00
7990;BME280;4040;42.848;23.034;2023-05-10T14:59:24;95109.91;;;11.83;100.00
7990;BME280;4040;42.848;23.034;2023-05-10T15:05:14;95094.31;;;12.01;100.00
7990;BME280;4040;42.848;23.034;2023-05-10T15:11:04;95096.53;;;11.76;100.00
7990;BME280;4040;42.848;23.034;2023-05-10T15:16:53;95093.66;;;11.90;100.00
7990;BME280;4040;42.848;23.034;2023-05-10T15:22:43;95090.44;;;12.02;100.00
7990;BME280;4040;42.848;23.034;2023-05-10T15:28:32;95091.50;;;12.12;100.00
7990;BME280;4040;42.848;23.034;2023-05-10T15:34:20;95092.13;;;11.89;100.00
7990;BME280;4040;42.848;23.034;2023-05-10T15:44:33;95079.16;;;11.77;100.00
7990;BME280;4040;42.848;23.034;2023-05-10T15:50:22;95069.59;;;11.69;100.00
7990;BME280;4040;42.848;23.034;2023-05-10T15:56:11;95083.03;;;11.76;100.00
7990;BME280;4040;42.848;23.034;2023-05-10T16:02:01;95084.72;;;11.63;100.00
7990;BME280;4040;42.848;23.034;2023-05-10T16:07:50;95080.53;;;11.52;100.00
7990;BME280;4040;42.848;23.034;2023-05-10T16:13:39;95091.06;;;11.39;100.00
7990;BME280;4040;42.848;23.034;2023-05-10T16:19:29;95087.63;;;11.35;100.00
7990;BME280;4040;42.848;23.034;2023-05-10T16:25:18;95091.91;;;11.29;100.00
7990;BME280;4040;42.848;23.034;2023-05-10T16:31:07;95094.28;;;11.20;100.00
7990;BME280;4040;42.848;23.034;2023-05-10T16:36:57;95088.03;;;11.34;100.00
7990;BME280;4040;42.848;23.034;2023-05-10T16:47:08;95071.34;;;11.02;100.00
7990;BME280;4040;42.848;23.034;2023-05-10T16:52:58;95103.63;;;11.12;100.00
7990;BME280;4040;42.848;23.034;2023-05-10T16:58:47;95092.09;;;11.08;100.00
7990;BME280;4040;42.848;23.034;2023-05-10T17:04:36;95101.69;;;11.13;100.00
7990;BME280;4040;42.848;23.034;2023-05-10T17:10:27;95093.31;;;11.00;100.00
7990;BME280;4040;42.848;23.034;2023-05-10T17:16:15;95106.72;;;11.07;100.00
7990;BME280;4040;42.848;23.034;2023-05-10T17:22:05;95112.91;;;11.08;100.00
7990;BME280;4040;42.848;23.034;2023-05-10T17:27:55;95115.19;;;11.09;100.00
7990;BME280;4040;42.848;23.034;2023-05-10T17:33:43;95109.50;;;11.00;100.00
7990;BME280;4040;42.848;23.034;2023-05-10T17:39:33;95121.81;;;11.01;100.00
7990;BME280;4040;42.848;23.034;2023-05-10T17:49:44;95123.75;;;10.94;100.00
7990;BME280;4040;42.848;23.034;2023-05-10T17:55:33;95126.03;;;11.02;100.00
7990;BME280;4040;42.848;23.034;2023-05-10T18:01:22;95125.34;;;10.91;100.00
7990;BME280;4040;42.848;23.034;2023-05-10T18:07:12;95134.63;;;10.83;100.00
7990;BME280;4040;42.848;23.034;2023-05-10T18:13:00;95138.03;;;10.87;100.00
7990;BME280;4040;42.848;23.034;2023-05-10T18:18:51;95136.59;;;10.72;100.00
7990;BME280;4040;42.848;23.034;2023-05-10T18:24:41;95139.28;;;10.79;100.00
7990;BME280;4040;42.848;23.034;2023-05-10T18:30:29;95143.16;;;10.71;100.00
7990;BME280;4040;42.848;23.034;2023-05-10T18:36:19;95149.31;;;10.68;100.00
7990;BME280;4040;42.848;23.034;2023-05-10T18:42:09;95164.75;;;10.64;100.00
7990;BME280;4040;42.848;23.034;2023-05-10T18:52:20;95167.84;;;10.59;100.00
7990;BME280;4040;42.848;23.034;2023-05-10T18:58:10;95172.09;;;10.57;100.00
7990;BME280;4040;42.848;23.034;2023-05-10T19:03:58;95176.31;;;10.61;100.00
7990;BME280;4040;42.848;23.034;2023-05-10T19:09:47;95170.16;;;10.57;100.00
7990;BME280;4040;42.848;23.034;2023-05-10T19:15:38;95162.50;;;10.52;100.00
7990;BME280;4040;42.848;23.034;2023-05-10T19:21:27;95159.38;;;10.57;100.00
7990;BME280;4040;42.848;23.034;2023-05-10T19:27:16;95166.28;;;10.58;100.00
7990;BME280;4040;42.848;23.034;2023-05-10T19:33:06;95160.97;;;10.48;100.00
7990;BME280;4040;42.848;23.034;2023-05-10T19:38:56;95167.88;;;10.56;100.00
7990;BME280;4040;42.848;23.034;2023-05-10T19:44:44;95161.69;;;10.55;100.00
7990;BME280;4040;42.848;23.034;2023-05-10T19:54:57;95158.25;;;10.55;100.00
7990;BME280;4040;42.848;23.034;2023-05-10T20:00:46;95157.09;;;10.59;100.00
7990;BME280;4040;42.848;23.034;2023-05-10T20:06:34;95163.59;;;10.58;100.00
7990;BME280;4040;42.848;23.034;2023-05-10T20:12:25;95164.84;;;10.43;100.00
7990;BME280;4040;42.848;23.034;2023-05-10T20:18:14;95160.19;;;10.47;100.00
7990;BME280;4040;42.848;23.034;2023-05-10T20:24:03;95164.09;;;10.39;100.00
7990;BME280;4040;42.848;23.034;2023-05-10T20:29:53;95167.16;;;10.41;100.00
7990;BME280;4040;42.848;23.034;2023-05-10T20:35:43;95159.44;;;10.43;100.00
7990;BME280;4040;42.848;23.034;2023-05-10T20:41:31;95165.63;;;10.40;100.00
7990;BME280;4040;42.848;23.034;2023-05-10T20:47:21;95161.34;;;10.46;100.00
7990;BME280;4040;42.848;23.034;2023-05-10T20:57:32;95159.44;;;10.43;100.00
7990;BME280;4040;42.848;23.034;2023-05-10T21:03:23;95157.91;;;10.42;100.00
7990;BME280;4040;42.848;23.034;2023-05-10T21:09:11;95159.47;;;10.36;100.00
7990;BME280;4040;42.848;23.034;2023-05-10T21:15:00;95156.41;;;10.34;100.00
7990;BME280;4040;42.848;23.034;2023-05-10T21:20:50;95154.13;;;10.29;100.00
7990;BME280;4040;42.848;23.034;2023-05-10T21:26:39;95153.34;;;10.25;100.00
7990;BME280;4040;42.848;23.034;2023-05-10T21:32:28;95150.66;;;10.25;100.00
7990;BME280;4040;42.848;23.034;2023-05-10T21:38:18;95148.75;;;10.29;100.00
7990;BME280;4040;42.848;23.034;2023-05-10T21:44:06;95145.34;;;10.15;100.00
7990;BME280;4040;42.848;23.034;2023-05-10T21:49:55;95141.06;;;10.24;100.00
7990;BME280;4040;42.848;23.034;2023-05-10T22:08:30;95150.72;;;10.11;100.00
7990;BME280;4040;42.848;23.034;2023-05-10T22:14:20;95143.44;;;10.12;100.00
7990;BME280;4040;42.848;23.034;2023-05-10T22:20:09;95131.09;;;10.14;100.00
7990;BME280;4040;42.848;23.034;2023-05-10T22:26:00;95133.41;;;10.12;100.00
7990;BME280;4040;42.848;23.034;2023-05-10T22:31:49;95132.66;;;10.12;100.00
7990;BME280;4040;42.848;23.034;2023-05-10T22:37:38;95141.13;;;10.14;100.00
7990;BME280;4040;42.848;23.034;2023-05-10T22:43:28;95125.75;;;10.07;100.00
7990;BME280;4040;42.848;23.034;2023-05-10T22:49:16;95131.53;;;10.02;100.00
7990;BME280;4040;42.848;23.034;2023-05-10T22:55:06;95135.34;;;10.01;100.00
7990;BME280;4040;42.848;23.034;2023-05-10T23:00:57;95125.75;;;10.07;100.00
7990;BME280;4040;42.848;23.034;2023-05-10T23:03:24;95115.00;;;10.04;100.00
7990;BME280;4040;42.848;23.034;2023-05-10T23:09:13;95123.44;;;10.09;100.00
7990;BME280;4040;42.848;23.034;2023-05-10T23:15:02;95117.28;;;10.05;100.00
7990;BME280;4040;42.848;23.034;2023-05-10T23:20:53;95096.56;;;9.89;100.00
7990;BME280;4040;42.848;23.034;2023-05-10T23:26:42;95119.59;;;10.00;100.00
7990;BME280;4040;42.848;23.034;2023-05-10T23:32:32;95118.06;;;9.95;100.00
7990;BME280;4040;42.848;23.034;2023-05-10T23:38:23;95087.34;;;9.83;100.00
7990;BME280;4040;42.848;23.034;2023-05-10T23:44:12;95098.47;;;9.92;100.00
7990;BME280;4040;42.848;23.034;2023-05-10T23:50:01;95115.00;;;9.90;100.00
7990;BME280;4040;42.848;23.034;2023-05-10T23:55:52;95108.09;;;9.93;100.00
